createdAt,value
2024-02-11T00:02:10.928Z,64.62
2024-02-11T00:04:38.877Z,64.77
2024-02-11T00:07:08.040Z,64.89
2024-02-11T00:09:35.510Z,65.36
2024-02-11T00:12:03.568Z,64.92
2024-02-11T00:14:31.105Z,65.18
2024-02-11T00:17:01.548Z,64.99
2024-02-11T00:19:31.335Z,63.77
2024-02-11T00:21:58.899Z,66.50
2024-02-11T00:24:31.310Z,64.79
2024-02-11T00:26:59.259Z,65.45
2024-02-11T00:29:27.908Z,65.57
2024-02-11T00:31:57.564Z,66.29
2024-02-11T00:34:25.702Z,65.14
2024-02-11T00:36:53.393Z,64.99
2024-02-11T00:39:21.286Z,65.36
2024-02-11T00:41:49.008Z,64.95
2024-02-11T00:44:16.604Z,65.70
2024-02-11T00:46:44.219Z,65.45
2024-02-11T00:49:12.293Z,65.83
2024-02-11T00:51:39.698Z,65.96
2024-02-11T00:54:07.244Z,65.15
2024-02-11T00:56:34.992Z,65.44
2024-02-11T00:59:02.449Z,66.67
2024-02-11T01:01:29.993Z,68.89
2024-02-11T01:03:58.027Z,66.61
2024-02-11T01:06:25.607Z,65.76
2024-02-11T01:08:53.546Z,64.45
2024-02-11T01:11:21.414Z,64.30
2024-02-11T01:13:49.865Z,66.04
2024-02-11T01:16:17.382Z,65.93
2024-02-11T01:18:47.423Z,65.20
2024-02-11T01:21:14.987Z,65.61
2024-02-11T01:23:42.509Z,66.31
2024-02-11T01:26:10.265Z,66.50
2024-02-11T01:28:40.821Z,67.76
2024-02-11T01:31:09.028Z,66.83
2024-02-11T01:33:36.780Z,66.49
2024-02-11T01:36:04.536Z,65.49
2024-02-11T01:38:32.460Z,65.92
2024-02-11T01:41:00.288Z,66.01
2024-02-11T01:43:27.751Z,65.49
2024-02-11T01:45:55.168Z,65.71
2024-02-11T01:48:22.981Z,66.16
2024-02-11T01:50:53.777Z,65.61
2024-02-11T01:53:21.674Z,64.80
2024-02-11T01:55:49.504Z,66.13
2024-02-11T01:58:17.237Z,65.25
2024-02-11T02:00:44.786Z,65.55
2024-02-11T02:03:13.579Z,65.40
2024-02-11T02:05:41.109Z,65.92
2024-02-11T02:08:10.382Z,65.07
2024-02-11T02:10:38.283Z,65.34
2024-02-11T02:13:05.707Z,66.17
2024-02-11T02:15:33.095Z,65.51
2024-02-11T02:18:00.870Z,65.89
2024-02-11T02:20:28.490Z,66.26
2024-02-11T02:22:56.055Z,64.65
2024-02-11T02:25:23.807Z,66.37
2024-02-11T02:27:51.226Z,65.66
2024-02-11T02:30:18.646Z,65.72
2024-02-11T02:32:46.340Z,64.67
2024-02-11T02:35:23.233Z,63.72
2024-02-11T02:37:55.025Z,64.41
2024-02-11T02:40:27.631Z,64.12
2024-02-11T02:42:58.701Z,65.48
2024-02-11T02:45:26.532Z,63.54
2024-02-11T02:47:55.399Z,63.32
2024-02-11T02:50:23.417Z,64.74
2024-02-11T02:52:51.066Z,63.48
2024-02-11T02:55:19.410Z,64.32
2024-02-11T02:57:47.281Z,62.86
2024-02-11T03:00:17.705Z,62.96
2024-02-11T03:02:45.624Z,63.27
2024-02-11T03:05:13.544Z,61.92
2024-02-11T03:07:41.717Z,62.36
2024-02-11T03:10:09.441Z,62.38
2024-02-11T03:12:37.283Z,61.83
2024-02-11T03:15:08.269Z,61.33
2024-02-11T03:17:35.876Z,62.04
2024-02-11T03:20:07.519Z,62.26
2024-02-11T03:22:35.032Z,61.37
2024-02-11T03:25:02.514Z,62.37
2024-02-11T03:27:30.233Z,62.03
2024-02-11T03:29:57.625Z,62.43
2024-02-11T03:32:25.048Z,62.52
2024-02-11T03:34:52.779Z,62.59
2024-02-11T03:37:20.209Z,61.41
2024-02-11T03:39:50.445Z,61.60
2024-02-11T03:42:20.915Z,62.00
2024-02-11T03:44:48.391Z,62.55
2024-02-11T03:47:15.799Z,63.04
2024-02-11T03:49:43.746Z,62.23
2024-02-11T03:52:12.318Z,63.20
2024-02-11T03:54:39.816Z,61.51
2024-02-11T03:57:07.919Z,61.91
2024-02-11T03:59:35.318Z,61.43
2024-02-11T04:02:04.769Z,60.75
2024-02-11T04:04:32.668Z,60.87
2024-02-11T04:07:00.503Z,63.10
2024-02-11T04:09:30.231Z,61.52
2024-02-11T04:12:02.182Z,60.76
2024-02-11T04:14:29.615Z,61.22
2024-02-11T04:16:57.204Z,61.24
2024-02-11T04:19:26.550Z,63.69
2024-02-11T04:21:53.962Z,63.48
2024-02-11T04:24:22.634Z,65.77
2024-02-11T04:26:54.850Z,66.51
2024-02-11T04:29:22.784Z,67.15
2024-02-11T04:31:52.379Z,66.80
2024-02-11T04:34:23.347Z,67.50
2024-02-11T04:36:51.235Z,65.36
2024-02-11T04:39:20.261Z,67.17
2024-02-11T04:41:47.822Z,65.13
2024-02-11T04:44:16.714Z,63.55
2024-02-11T04:46:44.289Z,63.67
2024-02-11T04:49:11.909Z,63.66
2024-02-11T04:51:40.581Z,62.97
2024-02-11T04:54:08.444Z,63.98
2024-02-11T04:56:36.420Z,63.02
2024-02-11T04:59:05.397Z,62.42
2024-02-11T05:01:33.037Z,63.00
2024-02-11T05:04:02.635Z,63.19
2024-02-11T05:06:32.105Z,62.06
2024-02-11T05:09:02.036Z,61.94
2024-02-11T05:11:30.147Z,62.15
2024-02-11T05:13:59.410Z,62.09
2024-02-11T05:16:29.464Z,62.75
2024-02-11T05:18:57.554Z,63.31
2024-02-11T05:21:25.456Z,62.89
2024-02-11T05:23:52.922Z,64.04
2024-02-11T05:26:22.861Z,63.19
2024-02-11T05:28:50.953Z,63.40
2024-02-11T05:31:24.190Z,63.09
2024-02-11T05:33:52.527Z,63.10
2024-02-11T05:36:20.191Z,63.04
2024-02-11T05:38:48.734Z,63.41
2024-02-11T05:41:16.569Z,66.78
2024-02-11T05:43:44.146Z,65.35
2024-02-11T05:46:11.867Z,64.44
2024-02-11T05:48:39.688Z,64.38
2024-02-11T05:51:07.302Z,63.89
2024-02-11T05:53:35.127Z,64.68
2024-02-11T05:56:05.676Z,64.83
2024-02-11T05:58:33.443Z,65.92
2024-02-11T06:01:00.946Z,65.24
2024-02-11T06:03:28.673Z,65.16
2024-02-11T06:05:56.106Z,64.47
2024-02-11T06:08:23.847Z,64.58
2024-02-11T06:10:52.582Z,66.80
2024-02-11T06:13:20.583Z,66.44
2024-02-11T06:15:49.318Z,66.80
2024-02-11T06:18:19.192Z,66.96
2024-02-11T06:20:47.053Z,66.40
2024-02-11T06:23:14.833Z,69.26
2024-02-11T06:25:43.989Z,67.88
2024-02-11T06:28:11.578Z,68.49
2024-02-11T06:30:39.221Z,69.61
2024-02-11T06:33:11.594Z,69.24
2024-02-11T06:35:41.484Z,69.10
2024-02-11T06:38:09.385Z,69.48
2024-02-11T06:40:37.063Z,68.54
2024-02-11T06:43:12.255Z,66.78
2024-02-11T06:45:47.575Z,68.69
2024-02-11T06:48:15.482Z,69.67
2024-02-11T06:50:43.324Z,68.19
2024-02-11T06:53:10.824Z,67.87
2024-02-11T06:55:38.264Z,68.32
2024-02-11T06:58:08.702Z,67.77
2024-02-11T07:00:38.572Z,71.51
2024-02-11T07:03:06.336Z,69.45
2024-02-11T07:05:34.105Z,70.29
2024-02-11T07:08:01.761Z,69.15
2024-02-11T07:10:30.763Z,70.28
2024-02-11T07:12:58.793Z,69.33
2024-02-11T07:15:26.486Z,67.59
2024-02-11T07:17:55.026Z,67.67
2024-02-11T07:20:23.890Z,69.35
2024-02-11T07:22:51.524Z,68.54
2024-02-11T07:25:19.724Z,68.27
2024-02-11T07:27:47.406Z,67.07
2024-02-11T07:30:15.413Z,67.88
2024-02-11T07:32:44.337Z,69.70
2024-02-11T07:35:14.375Z,67.15
2024-02-11T07:37:42.989Z,68.04
2024-02-11T07:40:13.226Z,68.71
2024-02-11T07:42:42.034Z,67.89
2024-02-11T07:45:16.388Z,67.56
2024-02-11T07:47:48.675Z,68.07
2024-02-11T07:50:17.117Z,67.07
2024-02-11T07:52:45.672Z,67.05
2024-02-11T07:55:13.621Z,67.38
2024-02-11T07:57:42.048Z,70.27
2024-02-11T08:00:09.801Z,67.99
2024-02-11T08:02:37.592Z,67.45
2024-02-11T08:05:05.376Z,68.11
2024-02-11T08:07:32.791Z,66.43
2024-02-11T08:10:00.494Z,66.51
2024-02-11T08:12:28.604Z,66.71
2024-02-11T08:14:56.209Z,65.31
2024-02-11T08:17:24.035Z,68.75
2024-02-11T08:19:51.606Z,66.39
2024-02-11T08:22:19.860Z,67.30
2024-02-11T08:24:47.514Z,66.44
2024-02-11T08:27:14.985Z,66.68
2024-02-11T08:29:47.454Z,66.66
2024-02-11T08:32:15.280Z,65.97
2024-02-11T08:34:42.991Z,65.63
2024-02-11T08:37:10.440Z,66.69
2024-02-11T08:39:38.101Z,65.38
2024-02-11T08:42:07.020Z,65.96
2024-02-11T08:44:34.458Z,66.64
2024-02-11T08:47:03.576Z,66.30
2024-02-11T08:49:31.017Z,67.28
2024-02-11T08:51:59.997Z,66.83
2024-02-11T08:54:27.660Z,67.16
2024-02-11T08:56:55.532Z,68.86
2024-02-11T08:59:23.262Z,68.65
2024-02-11T09:01:54.447Z,65.74
2024-02-11T09:04:23.111Z,67.22
2024-02-11T09:07:00.411Z,66.75
2024-02-11T09:09:27.972Z,68.50
2024-02-11T09:11:59.153Z,66.46
2024-02-11T09:14:27.630Z,67.54
2024-02-11T09:16:55.560Z,66.15
2024-02-11T09:19:24.665Z,64.68
2024-02-11T09:21:52.132Z,65.71
2024-02-11T09:24:19.816Z,67.85
2024-02-11T09:26:48.388Z,66.14
2024-02-11T09:29:15.945Z,65.94
2024-02-11T09:31:43.394Z,67.33
2024-02-11T09:34:11.836Z,69.60
2024-02-11T09:36:39.886Z,67.28
2024-02-11T09:39:07.366Z,66.12
2024-02-11T09:41:35.385Z,66.64
2024-02-11T09:44:03.717Z,64.17
2024-02-11T09:46:36.245Z,65.06
2024-02-11T09:49:16.215Z,63.82
2024-02-11T09:51:43.717Z,62.98
2024-02-11T09:54:11.364Z,61.39
2024-02-11T09:56:38.834Z,63.59
2024-02-11T09:59:06.421Z,63.82
2024-02-11T10:01:34.626Z,63.20
2024-02-11T10:04:04.349Z,65.49
2024-02-11T10:06:35.901Z,65.34
2024-02-11T10:09:06.926Z,64.81
2024-02-11T10:11:38.236Z,63.92
2024-02-11T10:14:11.214Z,63.60
2024-02-11T10:16:39.738Z,62.63
2024-02-11T10:19:07.837Z,62.64
2024-02-11T10:21:35.308Z,61.11
2024-02-11T10:24:05.832Z,61.15
2024-02-11T10:26:33.612Z,64.16
2024-02-11T10:29:01.235Z,61.97
2024-02-11T10:31:30.754Z,61.95
2024-02-11T10:33:58.992Z,64.18
2024-02-11T10:36:27.399Z,65.04
2024-02-11T10:38:58.122Z,64.21
2024-02-11T10:41:25.824Z,64.62
2024-02-11T10:43:53.551Z,63.32
2024-02-11T10:46:21.737Z,62.64
2024-02-11T10:48:50.019Z,63.95
2024-02-11T10:51:24.512Z,64.95
2024-02-11T10:54:02.791Z,64.56
2024-02-11T10:56:30.270Z,62.88
2024-02-11T10:59:02.449Z,65.10
2024-02-11T11:01:29.905Z,61.67
2024-02-11T11:03:57.953Z,65.30
2024-02-11T11:06:25.748Z,62.29
2024-02-11T11:08:54.144Z,61.86
2024-02-11T11:11:26.351Z,61.67
2024-02-11T11:13:55.779Z,65.46
2024-02-11T11:16:28.506Z,62.57
2024-02-11T11:18:56.802Z,63.87
2024-02-11T11:21:24.565Z,61.99
2024-02-11T11:23:52.020Z,61.81
2024-02-11T11:26:21.439Z,61.30
2024-02-11T11:28:50.526Z,64.43
2024-02-11T11:31:18.310Z,65.87
2024-02-11T11:33:45.860Z,63.03
2024-02-11T11:36:23.740Z,64.47
2024-02-11T11:38:52.544Z,62.47
2024-02-11T11:41:20.535Z,62.03
2024-02-11T11:43:48.255Z,61.46
2024-02-11T11:46:15.859Z,62.41
2024-02-11T11:48:43.774Z,63.87
2024-02-11T11:51:12.570Z,66.17
2024-02-11T11:53:40.199Z,64.69
2024-02-11T11:56:08.352Z,63.85
2024-02-11T11:58:35.924Z,63.75
2024-02-11T12:01:05.659Z,63.69
2024-02-11T12:03:34.849Z,67.22
2024-02-11T12:06:02.665Z,65.26
2024-02-11T12:08:30.408Z,67.82
2024-02-11T12:11:05.099Z,65.93
2024-02-11T12:13:34.129Z,64.89
2024-02-11T12:16:03.743Z,63.96
2024-02-11T12:18:31.944Z,64.43
2024-02-11T12:20:59.451Z,64.81
2024-02-11T12:23:27.358Z,64.86
2024-02-11T12:25:55.611Z,64.51
2024-02-11T12:28:30.764Z,64.09
2024-02-11T12:31:14.376Z,64.30
2024-02-11T12:33:49.694Z,64.86
2024-02-11T12:36:24.008Z,65.19
2024-02-11T12:38:52.965Z,65.42
2024-02-11T12:41:22.325Z,65.10
2024-02-11T12:43:51.096Z,65.25
2024-02-11T12:46:18.634Z,65.70
2024-02-11T12:48:46.823Z,64.41
2024-02-11T12:51:15.827Z,65.00
2024-02-11T12:53:43.482Z,64.45
2024-02-11T12:56:12.512Z,65.42
2024-02-11T12:58:44.120Z,64.80
2024-02-11T13:01:12.551Z,64.17
2024-02-11T13:03:40.527Z,63.59
2024-02-11T13:06:08.567Z,63.77
2024-02-11T13:08:36.775Z,63.26
2024-02-11T13:11:06.611Z,63.99
2024-02-11T13:13:35.775Z,63.81
2024-02-11T13:16:07.225Z,63.43
2024-02-11T13:18:35.674Z,64.05
2024-02-11T13:21:05.071Z,63.65
2024-02-11T13:23:33.306Z,62.46
2024-02-11T13:26:01.542Z,62.42
2024-02-11T13:28:29.116Z,62.25
2024-02-11T13:31:07.104Z,62.50
2024-02-11T13:33:42.076Z,62.55
2024-02-11T13:36:11.847Z,62.31
2024-02-11T13:38:39.564Z,61.92
2024-02-11T13:41:08.676Z,61.37
2024-02-11T13:43:36.615Z,61.99
2024-02-11T13:46:04.800Z,61.70
2024-02-11T13:48:32.525Z,61.19
2024-02-11T13:51:00.679Z,60.68
2024-02-11T13:53:28.259Z,60.72
2024-02-11T13:55:55.771Z,60.39
2024-02-11T13:58:23.569Z,61.10
2024-02-11T14:00:51.656Z,60.62
2024-02-11T14:03:19.576Z,60.30
2024-02-11T14:05:47.376Z,61.00
2024-02-11T14:08:17.092Z,60.77
2024-02-11T14:10:47.159Z,59.61
2024-02-11T14:13:15.356Z,59.86
2024-02-11T14:15:42.865Z,59.38
2024-02-11T14:18:12.623Z,60.43
2024-02-11T14:20:40.476Z,60.81
2024-02-11T14:23:07.973Z,60.35
2024-02-11T14:25:35.833Z,61.53
2024-02-11T14:28:03.317Z,60.94
2024-02-11T14:30:30.762Z,61.04
2024-02-11T14:32:58.559Z,60.69
2024-02-11T14:35:26.530Z,61.48
2024-02-11T14:37:54.275Z,61.59
2024-02-11T14:40:23.157Z,61.19
2024-02-11T14:42:51.833Z,61.76
2024-02-11T14:45:19.335Z,61.00
2024-02-11T14:47:48.308Z,61.93
2024-02-11T14:50:15.941Z,62.21
2024-02-11T14:52:44.407Z,62.20
2024-02-11T14:55:12.225Z,61.92
2024-02-11T14:57:39.955Z,61.92
2024-02-11T15:00:12.200Z,61.27
2024-02-11T15:02:40.308Z,62.00
2024-02-11T15:05:10.258Z,61.86
2024-02-11T15:07:38.263Z,62.05
2024-02-11T15:10:06.666Z,62.21
2024-02-11T15:12:34.416Z,61.66
2024-02-11T15:15:02.068Z,61.26
2024-02-11T15:17:30.686Z,61.71
2024-02-11T15:19:59.455Z,61.43
2024-02-11T15:22:27.055Z,61.93
2024-02-11T15:24:55.284Z,61.70
2024-02-11T15:27:22.837Z,61.75
2024-02-11T15:29:50.246Z,61.39
2024-02-11T15:32:17.954Z,61.86
2024-02-11T15:34:45.590Z,62.68
2024-02-11T15:37:13.138Z,61.96
2024-02-11T15:39:41.151Z,61.63
2024-02-11T15:42:10.083Z,61.92
2024-02-11T15:44:40.557Z,62.35
2024-02-11T15:47:08.515Z,62.46
2024-02-11T15:49:37.625Z,62.27
2024-02-11T15:52:07.585Z,62.89
2024-02-11T15:54:35.743Z,62.84
2024-02-11T15:57:03.196Z,63.40
2024-02-11T15:59:30.669Z,62.98
2024-02-11T16:01:58.414Z,63.45
2024-02-11T16:04:26.433Z,63.35
2024-02-11T16:06:55.206Z,63.61
2024-02-11T16:09:22.568Z,63.89
2024-02-11T16:11:50.790Z,64.01
2024-02-11T16:14:18.704Z,64.24
2024-02-11T16:16:46.477Z,63.91
2024-02-11T16:19:14.270Z,64.33
2024-02-11T16:21:41.682Z,64.29
2024-02-11T16:24:14.977Z,64.21
2024-02-11T16:26:44.682Z,64.64
2024-02-11T16:29:13.056Z,64.77
2024-02-11T16:31:43.352Z,64.87
2024-02-11T16:34:14.127Z,64.78
2024-02-11T16:36:42.400Z,64.68
2024-02-11T16:39:09.973Z,65.28
2024-02-11T16:41:41.417Z,64.90
2024-02-11T16:44:09.069Z,64.84
2024-02-11T16:46:36.587Z,64.35
2024-02-11T16:49:05.683Z,65.21
2024-02-11T16:51:33.706Z,64.68
2024-02-11T16:54:01.562Z,65.08
2024-02-11T16:56:29.358Z,65.24
2024-02-11T16:58:57.622Z,64.65
2024-02-11T17:01:25.788Z,64.96
2024-02-11T17:03:53.550Z,65.45
2024-02-11T17:06:21.173Z,65.05
2024-02-11T17:08:48.758Z,65.24
2024-02-11T17:11:16.533Z,65.32
2024-02-11T17:13:45.743Z,64.94
2024-02-11T17:16:13.372Z,64.56
2024-02-11T17:18:41.276Z,64.60
2024-02-11T17:21:13.604Z,65.12
2024-02-11T17:23:42.264Z,65.50
2024-02-11T17:26:09.980Z,64.86
2024-02-11T17:28:37.777Z,65.73
2024-02-11T17:31:05.868Z,65.41
2024-02-11T17:33:33.840Z,65.26
2024-02-11T17:36:01.797Z,65.08
2024-02-11T17:38:30.650Z,65.83
2024-02-11T17:40:59.634Z,65.84
2024-02-11T17:43:27.278Z,66.05
2024-02-11T17:45:55.602Z,66.17
2024-02-11T17:48:24.075Z,66.49
2024-02-11T17:50:56.428Z,66.27
2024-02-11T17:53:28.067Z,66.37
2024-02-11T17:56:02.100Z,66.74
2024-02-11T17:58:30.289Z,65.94
2024-02-11T18:00:59.113Z,66.24
2024-02-11T18:03:33.811Z,65.33
2024-02-11T18:06:05.822Z,66.18
2024-02-11T18:08:34.414Z,66.29
2024-02-11T18:11:02.082Z,66.44
2024-02-11T18:13:30.211Z,66.72
2024-02-11T18:15:57.920Z,67.01
2024-02-11T18:18:26.251Z,66.49
2024-02-11T18:20:53.731Z,66.96
2024-02-11T18:23:21.481Z,67.28
2024-02-11T18:26:02.298Z,67.18
2024-02-11T18:28:38.116Z,67.37
2024-02-11T18:31:07.906Z,67.89
2024-02-11T18:33:36.008Z,73.22
2024-02-11T18:36:03.615Z,79.89
2024-02-11T18:38:35.361Z,78.52
2024-02-11T18:41:05.841Z,79.82
2024-02-11T18:43:36.757Z,78.75
2024-02-11T18:46:04.716Z,82.10
2024-02-11T18:48:33.396Z,82.34
2024-02-11T18:51:07.769Z,81.20
2024-02-11T18:53:36.862Z,81.44
2024-02-11T18:56:05.534Z,82.90
2024-02-11T18:58:34.055Z,83.30
2024-02-11T19:01:04.446Z,84.05
2024-02-11T19:03:32.231Z,83.64
2024-02-11T19:05:59.959Z,82.65
2024-02-11T19:08:28.487Z,83.90
2024-02-11T19:10:56.462Z,83.63
2024-02-11T19:13:27.658Z,84.02
2024-02-11T19:15:57.216Z,82.62
2024-02-11T19:18:25.696Z,81.09
2024-02-11T19:20:53.791Z,80.14
2024-02-11T19:23:24.697Z,83.75
2024-02-11T19:25:56.638Z,82.55
2024-02-11T19:28:25.149Z,82.57
2024-02-11T19:30:53.937Z,82.91
2024-02-11T19:33:41.844Z,82.92
2024-02-11T19:36:09.702Z,82.66
2024-02-11T19:38:37.713Z,82.51
2024-02-11T19:41:06.353Z,85.10
2024-02-11T19:43:34.672Z,84.15
2024-02-11T19:46:03.538Z,84.26
2024-02-11T19:48:33.609Z,84.27
2024-02-11T19:51:01.457Z,83.81
2024-02-11T19:53:38.090Z,81.96
2024-02-11T19:56:09.268Z,80.53
2024-02-11T19:58:42.826Z,82.63
2024-02-11T20:01:11.029Z,81.31
2024-02-11T20:03:38.847Z,80.48
2024-02-11T20:06:08.009Z,81.09
2024-02-11T20:08:35.746Z,79.46
2024-02-11T20:11:08.490Z,79.19
2024-02-11T20:13:37.189Z,79.75
2024-02-11T20:16:05.406Z,80.45
2024-02-11T20:18:33.108Z,79.80
2024-02-11T20:21:00.616Z,79.54
2024-02-11T20:23:29.316Z,79.74
2024-02-11T20:25:56.793Z,80.88
2024-02-11T20:28:26.755Z,79.55
2024-02-11T20:30:56.397Z,78.25
2024-02-11T20:33:25.295Z,79.34
2024-02-11T20:35:52.786Z,79.01
2024-02-11T20:38:23.335Z,77.94
2024-02-11T20:40:51.154Z,79.30
2024-02-11T20:43:18.591Z,79.65
2024-02-11T20:45:47.201Z,79.29
2024-02-11T20:48:14.966Z,77.06
2024-02-11T20:50:42.484Z,77.98
2024-02-11T20:53:10.301Z,77.87
2024-02-11T20:55:38.679Z,78.39
2024-02-11T20:58:06.648Z,76.70
2024-02-11T21:00:37.743Z,75.92
2024-02-11T21:03:09.373Z,79.04
2024-02-11T21:05:37.512Z,78.19
2024-02-11T21:08:07.664Z,77.30
2024-02-11T21:10:35.104Z,75.83
2024-02-11T21:13:18.381Z,76.17
2024-02-11T21:15:45.954Z,76.46
2024-02-11T21:18:13.881Z,77.60
2024-02-11T21:20:43.479Z,77.06
2024-02-11T21:23:12.218Z,77.11
2024-02-11T21:25:39.984Z,76.31
2024-02-11T21:28:07.324Z,76.40
2024-02-11T21:30:34.886Z,78.61
2024-02-11T21:33:04.541Z,78.29
2024-02-11T21:35:32.037Z,77.19
2024-02-11T21:37:59.744Z,75.18
2024-02-11T21:40:27.721Z,75.58
2024-02-11T21:42:55.967Z,76.78
2024-02-11T21:45:23.420Z,76.09
2024-02-11T21:47:52.697Z,76.82
2024-02-11T21:50:20.629Z,75.40
2024-02-11T21:52:48.379Z,76.61
2024-02-11T21:55:19.474Z,77.46
2024-02-11T21:57:47.082Z,75.36
2024-02-11T22:00:15.458Z,76.26
2024-02-11T22:02:56.673Z,75.60
2024-02-11T22:05:24.514Z,75.08
2024-02-11T22:07:52.283Z,75.75
2024-02-11T22:10:20.269Z,77.81
2024-02-11T22:12:51.811Z,75.54
2024-02-11T22:15:19.545Z,76.57
2024-02-11T22:17:48.587Z,76.17
2024-02-11T22:20:16.798Z,75.47
2024-02-11T22:22:44.708Z,76.12
2024-02-11T22:25:12.302Z,79.21
2024-02-11T22:27:56.382Z,78.13
2024-02-11T22:30:24.144Z,78.41
2024-02-11T22:32:53.067Z,74.73
2024-02-11T22:35:20.658Z,73.61
2024-02-11T22:37:48.393Z,76.22
2024-02-11T22:40:16.299Z,72.95
2024-02-11T22:42:50.423Z,73.57
2024-02-11T22:45:18.262Z,75.20
2024-02-11T22:47:46.213Z,71.03
2024-02-11T22:50:15.427Z,70.38
2024-02-11T22:52:53.879Z,68.70
2024-02-11T22:55:23.206Z,71.55
2024-02-11T22:57:51.510Z,71.44
2024-02-11T23:00:37.650Z,74.94
2024-02-11T23:03:06.938Z,76.28
2024-02-11T23:05:38.882Z,74.95
2024-02-11T23:08:08.441Z,73.97
2024-02-11T23:10:37.579Z,73.67
2024-02-11T23:13:05.391Z,72.03
2024-02-11T23:15:33.757Z,75.94
2024-02-11T23:18:19.863Z,77.83
2024-02-11T23:20:47.680Z,75.31
2024-02-11T23:23:15.279Z,78.49
2024-02-11T23:25:42.797Z,77.39
2024-02-11T23:28:10.467Z,77.58
2024-02-11T23:30:40.247Z,77.35
2024-02-11T23:33:08.064Z,76.55
2024-02-11T23:35:40.131Z,75.47
2024-02-11T23:38:08.262Z,77.95
2024-02-11T23:40:36.368Z,78.76
2024-02-11T23:43:03.883Z,76.43
2024-02-11T23:45:31.780Z,75.09
2024-02-11T23:47:59.466Z,73.17
2024-02-11T23:50:27.733Z,71.85
2024-02-11T23:52:55.498Z,71.71
2024-02-11T23:55:23.296Z,71.84
2024-02-11T23:57:50.695Z,71.69
